Upper Montclair, New Jersey
Current Conditions -  °F | °C
As of 4:53 PM on Friday 24 Oct 2014 (Local Time) from KCDW Reporting Station
Broken Clouds Broken Clouds  
Wind Chill: 67°   Ceiling: 5500
Heat Index: 67°   Visibility: 10mi
Dew Point: 42°   Wind: 7mph
Humidity: 40%   Direction: 310°NW
Pressure: 29.77"   Gusts: NA
Location:  40.8433°N, 74.2009°W
Report Text: KCDW 242053Z 31006KT 10SM BKN055 19/06 A2977 RMK AO2 SLP085 T01940056 55006
Loading
Personal Weather Stations






























Interactive Weather Map
Tropical Storm Tracking
New forecast layout! Learn more

10-Day Weather Forecast

Advertisements
Track Severe Weather on mobile